Time;durP1;ratioP1;P1;durP2;ratioP2;P2;SDS_P1;SDS_P2;PMS_P1;PMS_P2;Temp;Humidity;BMP_temperature;BMP_pressure;BME280_temperature;BME280_humidity;BME280_pressure;Samples;Min_cycle;Max_cycle;Signal;HPM_P1;HPM_P2
2022/07/01 00:00:31;;;;;;;7.63;5.40;;;19.30;90.40;;;;;;5016564;28;20542;-73
2022/07/01 00:02:57;;;;;;;6.47;5.05;;;19.30;90.30;;;;;;5016319;28;20109;-74
2022/07/01 00:05:23;;;;;;;6.13;5.07;;;19.30;90.30;;;;;;5015482;28;20525;-74
2022/07/01 00:07:49;;;;;;;6.80;4.82;;;19.20;90.40;;;;;;5015487;28;20076;-74
2022/07/01 00:10:15;;;;;;;6.80;4.95;;;19.10;90.70;;;;;;5016045;28;20038;-74
2022/07/01 00:12:41;;;;;;;7.57;5.28;;;19.10;90.80;;;;;;5014683;28;20038;-73
2022/07/01 00:15:09;;;;;;;9.82;5.28;;;19.10;90.80;;;;;;5031292;28;20083;-73
2022/07/01 00:17:35;;;;;;;7.07;4.95;;;19.10;90.70;;;;;;5032270;28;20026;-74
2022/07/01 00:20:01;;;;;;;8.90;4.72;;;19.10;90.70;;;;;;5016066;28;20029;-72
2022/07/01 00:22:27;;;;;;;5.78;4.85;;;19.10;90.50;;;;;;5016400;28;20049;-74
2022/07/01 00:24:54;;;;;;;6.68;4.60;;;19.10;90.50;;;;;;5015742;28;20022;-74
2022/07/01 00:27:19;;;;;;;8.95;5.25;;;19.10;90.70;;;;;;4996869;28;20400;-74
2022/07/01 00:29:45;;;;;;;7.35;4.90;;;19.00;90.90;;;;;;5015418;28;20026;-74
2022/07/01 00:32:10;;;;;;;6.88;4.80;;;18.90;90.80;;;;;;5013847;28;20030;-74
2022/07/01 00:34:36;;;;;;;5.40;4.68;;;18.90;90.90;;;;;;5015377;28;20022;-74
2022/07/01 00:37:02;;;;;;;8.65;5.10;;;18.90;90.90;;;;;;5016142;28;20554;-73
2022/07/01 00:39:31;;;;;;;5.88;4.55;;;18.90;90.90;;;;;;5015605;28;20049;-74
2022/07/01 00:42:00;;;;;;;7.30;4.72;;;19.00;90.70;;;;;;5015591;28;20029;-72
2022/07/01 00:44:25;;;;;;;9.90;4.75;;;19.00;90.70;;;;;;5015973;28;20033;-74
2022/07/01 00:46:51;;;;;;;8.18;4.88;;;18.90;90.90;;;;;;5015762;28;20088;-74
2022/07/01 00:49:17;;;;;;;6.97;5.07;;;18.90;91.00;;;;;;5015279;28;20024;-73
2022/07/01 00:51:43;;;;;;;8.63;5.45;;;18.90;91.10;;;;;;5015569;28;20056;-74
2022/07/01 00:54:10;;;;;;;7.70;6.07;;;18.90;91.10;;;;;;5014925;28;20014;-74
2022/07/01 00:56:35;;;;;;;9.50;6.65;;;18.90;91.00;;;;;;5015031;28;20034;-74
2022/07/01 00:59:01;;;;;;;8.73;5.32;;;18.90;91.00;;;;;;5015361;28;20099;-73
2022/07/01 01:01:26;;;;;;;14.40;6.35;;;18.90;91.10;;;;;;5015336;28;20415;-74
2022/07/01 01:03:53;;;;;;;9.93;7.03;;;18.90;91.30;;;;;;5014974;28;20022;-73
2022/07/01 01:06:18;;;;;;;9.75;6.60;;;18.80;91.40;;;;;;5015352;28;20026;-74
2022/07/01 01:08:46;;;;;;;7.40;6.47;;;18.80;91.40;;;;;;5014864;28;20034;-74
2022/07/01 01:11:13;;;;;;;10.18;7.03;;;18.80;91.50;;;;;;5015219;28;20081;-74
2022/07/01 01:13:39;;;;;;;9.18;6.18;;;18.80;91.80;;;;;;5015036;28;20364;-74
2022/07/01 01:16:05;;;;;;;10.38;6.72;;;18.80;91.60;;;;;;5007008;28;20037;-74
2022/07/01 01:18:30;;;;;;;8.32;6.25;;;18.80;91.50;;;;;;5014881;28;20026;-74
2022/07/01 01:20:56;;;;;;;8.50;6.40;;;18.80;91.60;;;;;;5014937;28;20434;-74
2022/07/01 01:23:22;;;;;;;8.77;6.10;;;18.80;91.60;;;;;;5014987;28;20029;-74
2022/07/01 01:25:48;;;;;;;9.63;5.80;;;18.70;91.60;;;;;;5014753;28;20029;-74
2022/07/01 01:28:13;;;;;;;8.52;5.68;;;18.70;91.60;;;;;;5015039;28;20029;-74
2022/07/01 01:30:39;;;;;;;7.25;5.63;;;18.70;91.60;;;;;;5014903;28;20053;-74
2022/07/01 01:33:07;;;;;;;7.40;5.30;;;18.70;91.60;;;;;;5014592;28;20505;-74
2022/07/01 01:35:33;;;;;;;6.28;5.57;;;18.60;91.60;;;;;;5014663;28;20419;-74
2022/07/01 01:37:58;;;;;;;6.97;5.00;;;18.70;91.50;;;;;;5014803;28;20513;-74
2022/07/01 01:40:24;;;;;;;10.43;5.50;;;18.60;91.60;;;;;;5014537;28;20030;-74
2022/07/01 01:42:50;;;;;;;7.82;5.13;;;18.70;91.50;;;;;;5014747;28;20041;-74
2022/07/01 01:45:15;;;;;;;8.98;4.93;;;18.70;91.40;;;;;;5013792;28;20399;-74
2022/07/01 01:47:41;;;;;;;6.90;5.25;;;18.60;91.50;;;;;;5013926;28;20048;-74
2022/07/01 01:50:10;;;;;;;9.60;5.18;;;18.60;91.70;;;;;;5013933;28;20419;-74
2022/07/01 01:52:38;;;;;;;9.70;5.25;;;18.50;91.80;;;;;;5014007;28;20478;-73
2022/07/01 01:55:04;;;;;;;7.15;4.95;;;18.50;91.70;;;;;;5014732;28;20018;-74
2022/07/01 01:57:30;;;;;;;9.45;5.13;;;18.50;91.60;;;;;;5014395;28;20487;-74
2022/07/01 01:59:56;;;;;;;6.07;4.57;;;18.50;91.60;;;;;;5014066;28;20024;-74
2022/07/01 02:02:22;;;;;;;8.90;5.53;;;18.50;91.70;;;;;;5014471;28;20494;-74
2022/07/01 02:04:48;;;;;;;7.80;5.18;;;18.50;91.60;;;;;;5014149;28;20026;-74
2022/07/01 02:07:14;;;;;;;6.13;4.75;;;18.60;91.30;;;;;;5013929;28;20029;-74
2022/07/01 02:09:39;;;;;;;8.25;5.35;;;18.50;91.60;;;;;;5014457;28;20026;-73
2022/07/01 02:12:05;;;;;;;8.13;5.18;;;18.50;91.50;;;;;;5014010;28;20033;-74
2022/07/01 02:14:31;;;;;;;9.77;4.60;;;18.40;91.70;;;;;;5013975;28;20030;-74
2022/07/01 02:16:56;;;;;;;5.05;4.55;;;18.40;91.80;;;;;;5014145;28;20022;-74
2022/07/01 02:19:22;;;;;;;6.60;4.47;;;18.40;91.80;;;;;;5013942;28;20501;-74
2022/07/01 02:21:47;;;;;;;7.63;4.80;;;18.40;91.80;;;;;;5013803;28;20479;-74
2022/07/01 02:24:13;;;;;;;6.20;5.00;;;18.40;91.80;;;;;;5014114;28;20455;-73
2022/07/01 02:26:38;;;;;;;6.15;4.65;;;18.40;91.70;;;;;;5013848;28;20042;-74
2022/07/01 02:29:04;;;;;;;10.57;5.47;;;18.40;91.70;;;;;;5013604;28;20028;-74
2022/07/01 02:31:30;;;;;;;8.18;4.63;;;18.40;91.60;;;;;;5013969;28;20018;-74
2022/07/01 02:33:55;;;;;;;5.35;4.90;;;18.40;91.70;;;;;;5013894;28;20364;-73
2022/07/01 02:36:21;;;;;;;10.82;5.80;;;18.40;91.70;;;;;;5013623;28;20026;-73
2022/07/01 02:38:46;;;;;;;6.40;5.22;;;18.40;91.60;;;;;;5013800;28;20032;-74
2022/07/01 02:41:12;;;;;;;9.35;5.55;;;18.40;91.50;;;;;;5013830;28;20490;-73
2022/07/01 02:43:38;;;;;;;9.48;5.90;;;18.40;91.50;;;;;;5013232;28;20038;-74
2022/07/01 02:46:03;;;;;;;8.93;6.45;;;18.30;91.70;;;;;;5013583;28;20062;-74
2022/07/01 02:48:29;;;;;;;8.55;6.32;;;18.30;91.70;;;;;;5013643;28;20110;-73
2022/07/01 02:50:55;;;;;;;11.45;7.38;;;18.30;91.80;;;;;;5013559;28;20477;-73
2022/07/01 02:53:21;;;;;;;9.35;7.22;;;18.20;91.80;;;;;;5013841;28;20032;-74
2022/07/01 02:55:47;;;;;;;9.70;6.80;;;18.30;91.80;;;;;;5013439;28;20378;-73
2022/07/01 02:58:12;;;;;;;9.45;6.68;;;18.20;91.90;;;;;;5013210;28;20494;-74
2022/07/01 03:00:38;;;;;;;8.02;7.03;;;18.20;92.00;;;;;;5013557;28;20026;-74
2022/07/01 03:03:03;;;;;;;9.18;6.82;;;18.20;92.10;;;;;;5013364;28;20060;-74
2022/07/01 03:05:29;;;;;;;7.55;6.28;;;18.10;92.00;;;;;;5013355;28;20014;-73
2022/07/01 03:07:55;;;;;;;8.95;5.88;;;18.20;91.90;;;;;;5013329;28;20608;-74
2022/07/01 03:10:20;;;;;;;6.57;5.95;;;18.20;92.10;;;;;;5013167;28;20152;-73
2022/07/01 03:12:46;;;;;;;10.75;6.07;;;18.20;91.90;;;;;;5012949;28;20498;-74
2022/07/01 03:15:13;;;;;;;9.50;6.00;;;18.20;91.80;;;;;;4995598;28;20033;-72
2022/07/01 03:17:40;;;;;;;8.18;5.97;;;18.20;91.90;;;;;;5013191;28;20411;-71
2022/07/01 03:20:08;;;;;;;9.32;6.00;;;18.10;91.90;;;;;;5009465;28;20394;-71
2022/07/01 03:22:35;;;;;;;13.48;6.35;;;18.10;92.00;;;;;;5017262;28;20025;-72
2022/07/01 03:25:02;;;;;;;8.38;6.03;;;18.20;91.80;;;;;;5017418;28;20022;-71
2022/07/01 03:27:28;;;;;;;11.10;6.28;;;18.10;91.90;;;;;;5016739;28;20041;-73
2022/07/01 03:29:54;;;;;;;6.47;5.88;;;18.10;92.00;;;;;;5017351;28;20018;-72
2022/07/01 03:32:20;;;;;;;9.32;5.93;;;18.00;92.00;;;;;;5017126;28;20385;-73
2022/07/01 03:34:49;;;;;;;12.23;5.95;;;18.00;92.00;;;;;;5016981;28;20032;-73
2022/07/01 03:37:17;;;;;;;6.80;5.55;;;18.00;92.00;;;;;;5017123;28;20022;-73
2022/07/01 03:39:43;;;;;;;10.35;6.10;;;18.00;92.10;;;;;;5017006;28;20029;-74
2022/07/01 03:42:09;;;;;;;7.18;5.43;;;18.00;91.90;;;;;;5016400;28;20034;-74
2022/07/01 03:44:36;;;;;;;10.70;6.28;;;18.00;91.90;;;;;;5016890;28;20030;-74
2022/07/01 03:47:05;;;;;;;9.75;5.80;;;18.00;92.00;;;;;;5016684;28;20088;-73
2022/07/01 03:49:31;;;;;;;9.00;5.35;;;17.90;92.20;;;;;;5016800;28;20022;-74
2022/07/01 03:51:57;;;;;;;5.70;5.05;;;17.90;92.20;;;;;;5016879;28;20022;-74
2022/07/01 03:57:17;;;;;;;9.02;5.88;;;17.90;92.50;;;;;;5003028;28;20076;-73
2022/07/01 03:59:43;;;;;;;7.97;5.30;;;17.90;92.20;;;;;;5016711;28;20034;-74
2022/07/01 04:02:08;;;;;;;9.55;5.22;;;17.90;92.20;;;;;;5016723;28;20054;-74
2022/07/01 04:04:35;;;;;;;11.13;5.50;;;17.90;92.20;;;;;;5016442;28;20080;-74
2022/07/01 04:07:02;;;;;;;6.75;5.40;;;17.90;92.20;;;;;;5016439;28;20088;-74
2022/07/01 04:09:29;;;;;;;10.77;5.50;;;17.80;92.30;;;;;;5016315;28;20022;-73
2022/07/01 04:11:55;;;;;;;7.22;5.32;;;17.80;92.40;;;;;;5016240;28;20030;-74
2022/07/01 04:14:21;;;;;;;10.52;5.57;;;17.80;92.50;;;;;;5016008;28;20026;-74
2022/07/01 04:16:47;;;;;;;11.75;5.30;;;17.80;92.50;;;;;;5016354;28;20033;-74
2022/07/01 04:19:14;;;;;;;6.70;5.88;;;17.80;92.40;;;;;;5016168;28;20022;-74
2022/07/01 04:24:24;;;;;;;12.55;5.93;;;17.80;92.40;;;;;;5016571;28;20056;-74
2022/07/01 04:26:51;;;;;;;12.10;5.90;;;17.80;92.40;;;;;;4998183;28;20190;-74
2022/07/01 04:29:17;;;;;;;11.73;6.95;;;17.80;92.80;;;;;;5015899;28;20018;-74
2022/07/01 04:31:42;;;;;;;8.70;6.25;;;17.80;92.50;;;;;;5016046;28;20033;-74
2022/07/01 04:34:09;;;;;;;9.15;5.43;;;17.80;92.50;;;;;;5016107;28;20029;-74
2022/07/01 04:36:35;;;;;;;9.07;5.40;;;17.80;92.40;;;;;;5015843;28;20022;-73
2022/07/01 04:39:02;;;;;;;8.82;5.07;;;17.80;92.40;;;;;;5015864;28;20026;-74
2022/07/01 04:44:12;;;;;;;10.32;5.63;;;17.80;92.40;;;;;;5015930;28;20530;-71
2022/07/01 04:46:37;;;;;;;10.60;5.70;;;17.80;92.50;;;;;;4998281;28;20030;-72
2022/07/01 04:49:03;;;;;;;9.27;4.68;;;17.80;92.60;;;;;;5015605;28;20018;-71
2022/07/01 04:51:30;;;;;;;10.68;5.50;;;17.80;92.60;;;;;;5015707;28;20462;-72
2022/07/01 04:53:56;;;;;;;7.85;5.03;;;17.80;92.80;;;;;;5014233;28;20775;-73
2022/07/01 04:56:22;;;;;;;8.35;5.45;;;17.80;92.60;;;;;;5017306;28;20037;-71
2022/07/01 04:58:48;;;;;;;11.70;5.57;;;17.80;92.80;;;;;;5015203;28;20085;-71
2022/07/01 05:01:14;;;;;;;10.68;5.95;;;17.80;92.60;;;;;;5014436;28;20030;-72
2022/07/01 05:03:40;;;;;;;8.60;5.57;;;17.80;92.70;;;;;;5012629;28;20030;-71
2022/07/01 05:06:06;;;;;;;10.10;5.60;;;17.80;92.90;;;;;;5012874;28;20018;-73
2022/07/01 05:08:32;;;;;;;12.45;5.72;;;17.80;92.80;;;;;;5013669;28;20073;-71
2022/07/01 05:10:57;;;;;;;7.35;5.40;;;17.90;92.70;;;;;;5015063;28;20069;-73
2022/07/01 05:13:23;;;;;;;7.35;4.88;;;17.80;92.80;;;;;;5014872;28;20037;-73
2022/07/01 05:15:49;;;;;;;9.20;5.18;;;17.90;92.80;;;;;;5014998;28;20068;-73
2022/07/01 05:23:42;;;;;;;10.45;4.25;;;18.20;92.50;;;;;;5014460;28;20450;-73
2022/07/01 05:26:08;;;;;;;8.90;4.20;;;18.40;92.20;;;;;;5014768;28;20061;-73
2022/07/01 05:28:34;;;;;;;8.05;4.43;;;18.50;91.80;;;;;;5014239;28;20033;-73
2022/07/01 05:31:01;;;;;;;8.80;4.20;;;18.70;91.40;;;;;;5013283;28;20036;-72
2022/07/01 05:33:27;;;;;;;5.55;3.70;;;18.40;91.70;;;;;;5014337;28;20036;-73
2022/07/01 05:35:53;;;;;;;7.20;4.25;;;18.40;91.80;;;;;;5014340;28;20101;-73
2022/07/01 05:38:19;;;;;;;8.88;4.65;;;18.50;92.00;;;;;;5014824;28;20026;-73
2022/07/01 05:40:45;;;;;;;9.57;4.20;;;18.50;92.50;;;;;;5014098;28;20024;-73
2022/07/01 05:43:11;;;;;;;6.93;4.00;;;18.60;92.70;;;;;;5007831;28;20597;-73
2022/07/01 05:45:37;;;;;;;7.93;3.90;;;18.70;92.80;;;;;;5011322;28;20026;-72
2022/07/01 05:48:03;;;;;;;5.57;4.18;;;18.90;92.30;;;;;;5011763;28;20099;-73
2022/07/01 05:50:28;;;;;;;8.07;4.00;;;19.20;91.90;;;;;;5008525;28;20029;-72
2022/07/01 05:52:54;;;;;;;10.90;4.57;;;19.40;91.50;;;;;;5013774;28;20487;-73
2022/07/01 05:55:20;;;;;;;11.18;4.00;;;19.60;91.00;;;;;;5013619;28;20530;-72
2022/07/01 05:57:45;;;;;;;8.50;4.50;;;19.70;90.50;;;;;;4999736;28;20046;-72
2022/07/01 06:00:11;;;;;;;8.05;3.58;;;19.80;90.40;;;;;;5013721;28;20054;-73
2022/07/01 06:02:37;;;;;;;7.57;3.45;;;19.90;89.90;;;;;;5012858;28;20030;-73
2022/07/01 06:05:03;;;;;;;9.05;3.75;;;19.90;90.00;;;;;;5006936;28;20535;-73
2022/07/01 06:07:29;;;;;;;6.90;3.50;;;19.90;89.90;;;;;;5012011;28;20092;-73
2022/07/01 06:09:56;;;;;;;4.70;2.97;;;19.90;90.00;;;;;;5012848;28;20400;-73
2022/07/01 06:12:22;;;;;;;9.80;3.40;;;20.00;90.10;;;;;;5014404;28;20061;-73
2022/07/01 06:14:47;;;;;;;6.80;3.13;;;20.10;89.90;;;;;;5014071;28;20360;-73
2022/07/01 06:17:13;;;;;;;7.88;2.88;;;20.10;89.20;;;;;;5011643;28;20033;-74
2022/07/01 06:19:39;;;;;;;5.97;1.88;;;20.20;89.40;;;;;;5010936;28;20026;-72
2022/07/01 06:22:05;;;;;;;5.07;1.50;;;20.10;90.00;;;;;;5004923;28;20475;-72
2022/07/01 06:24:31;;;;;;;5.00;2.08;;;20.10;89.90;;;;;;5013665;28;20029;-72
2022/07/01 06:26:56;;;;;;;6.05;1.52;;;20.20;89.50;;;;;;5013792;28;20488;-72
2022/07/01 06:29:22;;;;;;;4.75;1.90;;;20.20;89.20;;;;;;5013895;28;20440;-72
2022/07/01 06:31:47;;;;;;;6.50;1.90;;;20.20;88.90;;;;;;5013679;28;20387;-73
2022/07/01 06:34:13;;;;;;;8.23;2.03;;;20.30;89.00;;;;;;5013568;28;20456;-72
2022/07/01 06:36:39;;;;;;;6.65;1.85;;;20.30;88.50;;;;;;5013093;28;20076;-72
2022/07/01 06:39:04;;;;;;;6.00;1.80;;;20.40;88.50;;;;;;5013768;28;20494;-72
2022/07/01 06:41:30;;;;;;;8.60;1.77;;;20.40;88.40;;;;;;5010717;28;20160;-73
2022/07/01 06:44:00;;;;;;;4.63;1.50;;;20.50;88.40;;;;;;5010570;28;20049;-73
2022/07/01 06:46:26;;;;;;;7.72;1.65;;;20.50;88.30;;;;;;5010855;28;20034;-73
2022/07/01 06:48:52;;;;;;;5.15;1.67;;;20.60;88.00;;;;;;5010212;28;20033;-72
2022/07/01 06:51:18;;;;;;;4.45;1.52;;;20.70;87.90;;;;;;5010584;28;20484;-74
2022/07/01 06:53:46;;;;;;;9.98;1.50;;;20.70;87.80;;;;;;5001039;28;20074;-73
2022/07/01 06:56:12;;;;;;;8.90;1.88;;;20.80;87.80;;;;;;5012894;28;20021;-73
2022/07/01 06:58:38;;;;;;;5.97;1.98;;;20.90;87.60;;;;;;5004799;28;20395;-73
2022/07/01 07:01:04;;;;;;;8.05;1.75;;;21.10;87.60;;;;;;5010545;28;20030;-73
2022/07/01 07:03:32;;;;;;;5.85;2.03;;;21.10;87.50;;;;;;5011100;28;20026;-71
2022/07/01 07:06:02;;;;;;;6.18;1.70;;;21.10;87.20;;;;;;5012516;28;20379;-72
2022/07/01 07:08:30;;;;;;;8.32;1.85;;;21.10;86.60;;;;;;5012525;28;20026;-72
2022/07/01 07:10:55;;;;;;;8.73;1.33;;;21.20;86.20;;;;;;5014023;28;20029;-72
2022/07/01 07:13:21;;;;;;;8.30;1.85;;;21.20;86.00;;;;;;5012833;28;20089;-71
2022/07/01 07:15:47;;;;;;;4.10;1.27;;;21.20;85.60;;;;;;5013242;28;20450;-72
2022/07/01 07:18:13;;;;;;;8.20;1.50;;;21.20;85.00;;;;;;5013287;28;20072;-72
2022/07/01 07:20:38;;;;;;;4.85;1.45;;;21.30;84.70;;;;;;5012437;28;20435;-71
2022/07/01 07:23:04;;;;;;;7.63;1.27;;;21.40;84.30;;;;;;5011853;28;20018;-71
2022/07/01 07:25:30;;;;;;;3.55;1.30;;;21.40;83.90;;;;;;5010564;28;20372;-72
2022/07/01 07:27:55;;;;;;;5.43;1.20;;;21.50;83.80;;;;;;5012231;28;20511;-73
2022/07/01 07:30:21;;;;;;;4.00;0.88;;;21.50;83.50;;;;;;5012129;28;20522;-70
2022/07/01 07:32:47;;;;;;;7.93;1.13;;;21.50;83.00;;;;;;5012900;28;20157;-72
2022/07/01 07:35:13;;;;;;;6.03;0.98;;;21.50;82.70;;;;;;5012986;28;20069;-72
2022/07/01 07:37:39;;;;;;;3.88;0.90;;;21.60;82.60;;;;;;5012756;28;20030;-72
2022/07/01 07:40:09;;;;;;;5.03;1.10;;;21.60;82.20;;;;;;5013187;28;20050;-72
2022/07/01 07:42:36;;;;;;;3.70;0.90;;;21.60;81.90;;;;;;5012257;28;20032;-71
2022/07/01 07:45:02;;;;;;;4.85;0.85;;;21.70;81.70;;;;;;5012483;28;20026;-72
2022/07/01 07:47:28;;;;;;;4.35;0.90;;;21.70;81.30;;;;;;5016588;28;20073;-72
2022/07/01 07:49:54;;;;;;;4.10;0.93;;;21.70;81.10;;;;;;5006498;28;20475;-70
2022/07/01 07:52:19;;;;;;;4.32;0.80;;;21.80;80.90;;;;;;5011563;28;20029;-73
2022/07/01 07:54:45;;;;;;;5.15;0.80;;;21.80;80.50;;;;;;5004732;28;20022;-72
2022/07/01 07:57:11;;;;;;;2.45;0.60;;;21.80;80.20;;;;;;5009308;28;20372;-72
2022/07/01 07:59:37;;;;;;;4.60;0.70;;;21.80;80.00;;;;;;5011600;28;20119;-72
2022/07/01 08:02:03;;;;;;;5.22;1.20;;;21.90;79.80;;;;;;5015711;28;20033;-73
2022/07/01 08:04:28;;;;;;;5.80;0.90;;;21.90;79.70;;;;;;5013141;28;20029;-73
2022/07/01 08:06:55;;;;;;;3.88;0.70;;;21.90;79.70;;;;;;5010930;28;20022;-73
2022/07/01 08:09:21;;;;;;;5.25;0.90;;;21.90;79.70;;;;;;5014444;28;20456;-73
2022/07/01 08:11:47;;;;;;;6.22;1.20;;;22.00;79.50;;;;;;5010017;28;20550;-73
2022/07/01 08:14:13;;;;;;;4.70;0.70;;;22.00;79.10;;;;;;5014479;28;20038;-74
2022/07/01 08:16:38;;;;;;;4.00;1.20;;;22.00;79.00;;;;;;5007478;28;20034;-72
2022/07/01 08:19:04;;;;;;;5.97;1.45;;;22.10;78.90;;;;;;5008103;28;20030;-73
2022/07/01 08:21:30;;;;;;;6.70;1.00;;;22.10;78.50;;;;;;5013600;28;20498;-73
2022/07/01 08:23:56;;;;;;;3.92;0.90;;;22.10;78.20;;;;;;5011630;28;20423;-72
2022/07/01 08:26:22;;;;;;;3.80;0.77;;;22.10;78.10;;;;;;5012132;28;20042;-72
2022/07/01 08:28:47;;;;;;;3.38;0.80;;;22.20;78.10;;;;;;5012520;28;20026;-71
2022/07/01 08:31:13;;;;;;;6.60;1.05;;;22.20;78.00;;;;;;5009784;28;20097;-70
2022/07/01 08:33:40;;;;;;;3.85;0.70;;;22.20;77.70;;;;;;5011005;28;20068;-69
2022/07/01 08:36:07;;;;;;;6.10;0.68;;;22.20;77.30;;;;;;5012066;28;20061;-72
2022/07/01 08:38:33;;;;;;;7.90;0.98;;;22.30;77.20;;;;;;5013776;28;20057;-70
2022/07/01 08:40:59;;;;;;;4.40;0.80;;;22.20;76.90;;;;;;5017109;28;20064;-70
2022/07/01 08:43:24;;;;;;;4.72;0.88;;;22.30;76.90;;;;;;5014151;28;20450;-70
2022/07/01 08:45:53;;;;;;;6.63;0.85;;;22.20;76.90;;;;;;5005968;28;20022;-71
2022/07/01 08:48:19;;;;;;;5.53;0.90;;;22.30;76.90;;;;;;5009872;28;20113;-69
2022/07/01 08:50:44;;;;;;;5.15;0.65;;;22.40;76.90;;;;;;5011555;28;20093;-72
2022/07/01 08:53:12;;;;;;;5.35;0.60;;;22.40;76.70;;;;;;4993860;28;20036;-69
2022/07/01 08:58:24;;;;;;;6.25;0.63;;;22.40;76.70;;;;;;5013411;28;20037;-70
2022/07/01 09:00:50;;;;;;;4.38;0.75;;;22.40;76.40;;;;;;5009375;28;20030;-68
2022/07/01 09:03:15;;;;;;;3.97;0.60;;;22.50;75.70;;;;;;5006478;28;20441;-67
2022/07/01 09:05:51;;;;;;;15.95;1.23;;;22.50;75.30;;;;;;5012203;28;20431;-69
2022/07/01 09:08:17;;;;;;;12.30;1.73;;;22.50;75.40;;;;;;5006530;28;20042;-66
2022/07/01 09:10:43;;;;;;;7.22;0.90;;;22.50;75.30;;;;;;5008304;28;20022;-70
2022/07/01 09:13:11;;;;;;;4.85;0.65;;;22.50;75.50;;;;;;5008976;28;20165;-70
2022/07/01 09:15:37;;;;;;;5.90;0.70;;;22.50;75.50;;;;;;5005558;28;20069;-67
2022/07/01 09:18:05;;;;;;;7.50;0.70;;;22.50;75.40;;;;;;5012095;28;20105;-71
2022/07/01 09:20:36;;;;;;;3.28;0.70;;;22.40;75.00;;;;;;5012774;28;20026;-72
2022/07/01 09:23:10;;;;;;;5.68;0.88;;;22.40;75.00;;;;;;5011659;28;20028;-70
2022/07/01 09:25:43;;;;;;;4.70;0.85;;;22.40;74.80;;;;;;5012823;28;20399;-68
2022/07/01 09:28:23;;;;;;;4.97;0.85;;;22.30;74.90;;;;;;5012909;28;20483;-72
2022/07/01 09:30:51;;;;;;;3.95;0.82;;;22.10;75.20;;;;;;5011066;28;20436;-72
2022/07/01 09:33:19;;;;;;;3.33;0.52;;;22.10;75.40;;;;;;4995906;28;20164;-70
2022/07/01 09:35:46;;;;;;;5.20;0.85;;;22.10;75.40;;;;;;5014469;28;20029;-72
2022/07/01 09:38:13;;;;;;;4.95;0.60;;;22.10;75.70;;;;;;5013688;28;20041;-73
2022/07/01 09:40:46;;;;;;;6.65;0.85;;;22.10;75.30;;;;;;5013758;28;20072;-73
2022/07/01 09:43:26;;;;;;;3.72;0.80;;;22.10;75.50;;;;;;4996573;28;20483;-71
2022/07/01 09:46:18;;;;;;;5.15;0.90;;;22.20;75.30;;;;;;5004453;28;20126;-72
2022/07/01 09:48:45;;;;;;;5.88;0.77;;;22.20;75.30;;;;;;5007786;28;20125;-72
2022/07/01 09:51:12;;;;;;;2.38;0.38;;;22.20;75.30;;;;;;5011788;28;20029;-71
2022/07/01 09:53:38;;;;;;;3.63;0.55;;;22.10;75.30;;;;;;5012557;28;20052;-71
2022/07/01 09:56:04;;;;;;;8.18;0.88;;;22.00;75.50;;;;;;5011455;28;20105;-72
2022/07/01 09:58:32;;;;;;;3.58;0.73;;;22.10;75.50;;;;;;4994111;28;20025;-70
2022/07/01 10:00:58;;;;;;;5.13;0.73;;;22.10;75.20;;;;;;5005929;28;20164;-69
2022/07/01 10:03:26;;;;;;;7.70;1.15;;;22.10;75.30;;;;;;5005827;28;20049;-71
2022/07/01 10:06:08;;;;;;;6.85;0.93;;;22.30;75.10;;;;;;5003056;28;20018;-72
2022/07/01 10:08:42;;;;;;;4.28;0.60;;;22.30;75.10;;;;;;5011178;28;20026;-72
2022/07/01 10:11:17;;;;;;;4.00;0.70;;;22.30;75.10;;;;;;5008954;28;20026;-70
2022/07/01 10:13:43;;;;;;;4.97;0.80;;;22.40;74.90;;;;;;5007670;28;20031;-70
2022/07/01 10:16:10;;;;;;;3.30;0.60;;;22.40;74.70;;;;;;5007224;28;20763;-73
2022/07/01 10:18:35;;;;;;;5.25;0.75;;;22.40;74.60;;;;;;5012512;28;20029;-71
2022/07/01 10:21:03;;;;;;;6.97;0.70;;;22.50;74.30;;;;;;5012921;28;20025;-72
2022/07/01 10:23:37;;;;;;;6.78;0.80;;;22.50;73.30;;;;;;5012923;28;20029;-71
2022/07/01 10:26:05;;;;;;;6.53;0.70;;;22.60;72.50;;;;;;5012360;28;20022;-73
2022/07/01 10:28:41;;;;;;;5.20;0.75;;;22.60;71.90;;;;;;5012067;28;20066;-73
2022/07/01 10:31:15;;;;;;;5.35;0.73;;;22.70;71.60;;;;;;5007306;28;20061;-72
2022/07/01 10:33:50;;;;;;;4.82;0.75;;;22.70;71.10;;;;;;5007170;28;20036;-72
2022/07/01 10:36:31;;;;;;;6.20;0.70;;;22.60;70.90;;;;;;5009557;28;20021;-72
2022/07/01 10:39:00;;;;;;;6.00;0.98;;;22.60;70.90;;;;;;5006706;28;20113;-72
2022/07/01 10:41:27;;;;;;;5.90;0.65;;;22.60;70.80;;;;;;4980865;28;20026;-75
2022/07/01 10:43:57;;;;;;;5.20;1.15;;;22.60;71.00;;;;;;5010051;28;20080;-72
2022/07/01 10:46:56;;;;;;;5.20;0.73;;;22.60;71.40;;;;;;4993935;28;20475;-72
2022/07/01 10:49:37;;;;;;;7.53;0.80;;;22.60;71.40;;;;;;5003001;28;20045;-73
2022/07/01 10:52:08;;;;;;;10.23;0.80;;;22.70;71.30;;;;;;4989675;28;20033;-74
2022/07/01 10:54:36;;;;;;;8.13;0.80;;;22.70;71.40;;;;;;5005026;28;20017;-73
2022/07/01 10:57:22;;;;;;;5.72;0.60;;;22.70;71.50;;;;;;5010310;28;20088;-74
2022/07/01 11:00:07;;;;;;;5.95;0.80;;;22.70;71.40;;;;;;5007037;28;20025;-73
2022/07/01 11:02:34;;;;;;;6.32;0.63;;;22.70;71.70;;;;;;5003267;28;20034;-73
2022/07/01 11:05:03;;;;;;;3.92;0.55;;;22.80;70.80;;;;;;5011072;28;20030;-71
2022/07/01 11:07:31;;;;;;;6.43;0.50;;;22.80;69.60;;;;;;5008198;28;20168;-73
2022/07/01 11:09:58;;;;;;;6.07;0.73;;;22.90;68.50;;;;;;5009499;28;20100;-73
2022/07/01 11:12:24;;;;;;;5.20;0.68;;;22.80;67.80;;;;;;5005848;28;20439;-73
2022/07/01 11:14:51;;;;;;;2.45;0.65;;;22.80;68.50;;;;;;5008559;28;20558;-73
2022/07/01 11:17:17;;;;;;;6.18;0.70;;;22.80;68.80;;;;;;5010436;28;20499;-75
2022/07/01 11:19:51;;;;;;;3.75;0.60;;;22.80;68.60;;;;;;5010479;28;20014;-74
2022/07/01 11:22:24;;;;;;;6.78;0.75;;;22.80;68.90;;;;;;5006918;28;20068;-76
2022/07/01 11:24:55;;;;;;;7.18;0.82;;;22.80;68.90;;;;;;5008738;28;20105;-74
2022/07/01 11:27:22;;;;;;;10.85;0.90;;;22.90;68.80;;;;;;5008663;28;20038;-74
2022/07/01 11:29:54;;;;;;;4.72;0.68;;;22.90;68.80;;;;;;5009056;28;20419;-74
2022/07/01 11:32:28;;;;;;;3.65;0.50;;;22.90;68.50;;;;;;5010605;28;20166;-74
2022/07/01 11:34:54;;;;;;;5.85;0.60;;;22.90;68.20;;;;;;5010326;28;20026;-74
2022/07/01 11:40:21;;;;;;;5.75;0.95;;;22.80;68.40;;;;;;4972051;28;20058;-74
2022/07/01 11:42:46;;;;;;;2.28;0.90;;;22.90;68.60;;;;;;4992330;28;20471;-74
2022/07/01 11:45:26;;;;;;;4.40;0.50;;;22.90;68.20;;;;;;5017057;28;20018;-73
2022/07/01 11:47:53;;;;;;;2.97;0.63;;;22.90;68.50;;;;;;5005994;28;20037;-74
2022/07/01 11:50:19;;;;;;;3.50;0.52;;;22.90;68.70;;;;;;5015495;28;20022;-73
2022/07/01 11:52:46;;;;;;;4.03;0.57;;;23.00;68.30;;;;;;5015172;28;20097;-74
2022/07/01 11:55:11;;;;;;;4.97;0.45;;;23.00;68.50;;;;;;4996557;28;20113;-74
2022/07/01 11:57:37;;;;;;;14.63;1.10;;;23.00;68.40;;;;;;5013812;28;20629;-72
2022/07/01 12:00:11;;;;;;;2.92;0.32;;;23.00;68.50;;;;;;5013351;28;20021;-73
2022/07/01 12:02:37;;;;;;;5.78;0.70;;;23.00;68.10;;;;;;5009192;28;20040;-74
2022/07/01 12:05:04;;;;;;;3.47;0.30;;;23.00;68.20;;;;;;5011650;28;20026;-73
2022/07/01 12:07:31;;;;;;;5.05;0.40;;;22.90;68.10;;;;;;5014620;28;20034;-73
2022/07/01 12:09:57;;;;;;;2.60;0.40;;;22.90;67.80;;;;;;5015411;28;20025;-73
2022/07/01 12:12:26;;;;;;;5.20;0.60;;;22.90;67.20;;;;;;5019530;28;20042;-74
2022/07/01 12:14:54;;;;;;;6.13;0.50;;;22.90;67.30;;;;;;5007378;28;20093;-73
2022/07/01 12:17:20;;;;;;;5.88;0.60;;;22.90;67.80;;;;;;5000617;28;20038;-73
2022/07/01 12:19:47;;;;;;;5.68;0.90;;;23.00;68.20;;;;;;5013196;28;20096;-72
2022/07/01 12:22:15;;;;;;;4.70;0.40;;;23.00;68.00;;;;;;5012894;28;20133;-75
2022/07/01 12:24:42;;;;;;;6.40;0.55;;;23.00;68.10;;;;;;5007404;28;20068;-74
2022/07/01 12:27:09;;;;;;;5.30;0.50;;;23.00;68.40;;;;;;5013228;28;20092;-74
2022/07/01 12:29:46;;;;;;;6.53;0.75;;;23.00;67.90;;;;;;5012599;28;20026;-74
2022/07/01 12:32:15;;;;;;;3.80;0.75;;;23.00;67.70;;;;;;5005830;28;20041;-75
2022/07/01 12:34:48;;;;;;;5.75;0.80;;;23.00;67.40;;;;;;5012753;28;20534;-71
2022/07/01 12:37:16;;;;;;;4.78;0.77;;;23.10;67.50;;;;;;5014373;28;20501;-73
2022/07/01 12:40:00;;;;;;;4.82;0.50;;;23.00;67.50;;;;;;5012572;28;20483;-72
2022/07/01 12:42:37;;;;;;;2.05;0.40;;;23.00;68.40;;;;;;5021812;28;20120;-75
2022/07/01 12:45:05;;;;;;;5.00;0.50;;;23.00;70.10;;;;;;5014325;28;20081;-73
2022/07/01 12:47:36;;;;;;;4.60;0.77;;;23.10;70.00;;;;;;5014196;28;20105;-75
2022/07/01 12:50:32;;;;;;;5.43;0.75;;;23.10;70.70;;;;;;4996434;28;20386;-75
2022/07/01 12:53:07;;;;;;;3.42;0.70;;;23.10;70.60;;;;;;5003839;28;20049;-75
2022/07/01 12:55:54;;;;;;;4.18;1.02;;;23.10;71.50;;;;;;5013723;28;20331;-76
2022/07/01 12:58:23;;;;;;;4.85;0.70;;;23.10;71.80;;;;;;5014345;28;20605;-76
2022/07/01 13:00:51;;;;;;;5.65;0.85;;;23.10;71.90;;;;;;5011281;28;20026;-75
2022/07/01 13:03:22;;;;;;;5.20;1.10;;;23.10;72.50;;;;;;5006997;28;20030;-75
2022/07/01 13:05:48;;;;;;;5.60;1.35;;;23.00;73.50;;;;;;5011551;28;20499;-75